createdAt,value
2018-03-17T00:02:03.848Z,4.51
2018-03-17T00:04:31.539Z,4.60
2018-03-17T00:06:59.205Z,4.50
2018-03-17T00:09:27.068Z,4.71
2018-03-17T00:11:54.757Z,4.50
2018-03-17T00:14:22.427Z,4.50
2018-03-17T00:16:50.119Z,4.54
2018-03-17T00:19:17.804Z,4.54
2018-03-17T00:21:45.504Z,4.49
2018-03-17T00:24:13.175Z,4.45
2018-03-17T00:26:40.868Z,4.56
2018-03-17T00:29:08.539Z,4.54
2018-03-17T00:31:36.219Z,4.50
2018-03-17T00:34:03.924Z,4.13
2018-03-17T00:36:31.605Z,4.20
2018-03-17T00:38:59.316Z,4.38
2018-03-17T00:41:26.995Z,4.59
2018-03-17T00:43:54.681Z,4.49
2018-03-17T00:46:22.387Z,4.46
2018-03-17T00:48:50.063Z,4.52
2018-03-17T00:51:18.035Z,4.63
2018-03-17T00:53:45.717Z,4.52
2018-03-17T00:56:13.398Z,4.47
2018-03-17T00:58:41.092Z,4.84
2018-03-17T01:01:08.795Z,4.78
2018-03-17T01:03:36.505Z,4.81
2018-03-17T01:06:04.180Z,4.74
2018-03-17T01:08:31.916Z,4.56
2018-03-17T01:10:59.588Z,4.62
2018-03-17T01:13:27.263Z,4.62
2018-03-17T01:15:54.957Z,4.78
2018-03-17T01:18:22.628Z,4.84
2018-03-17T01:20:50.324Z,4.74
2018-03-17T01:23:17.993Z,4.57
2018-03-17T01:25:45.820Z,4.55
2018-03-17T01:28:13.496Z,4.38
2018-03-17T01:30:41.171Z,4.51
2018-03-17T01:33:08.872Z,4.46
2018-03-17T01:35:36.539Z,4.39
2018-03-17T01:38:04.239Z,4.13
2018-03-17T01:40:31.903Z,4.11
2018-03-17T01:42:59.619Z,4.28
2018-03-17T01:45:27.323Z,4.40
2018-03-17T01:47:54.992Z,4.10
2018-03-17T01:50:22.694Z,4.00
2018-03-17T01:52:50.374Z,3.87
2018-03-17T01:55:18.072Z,3.78
2018-03-17T01:57:45.749Z,4.00
2018-03-17T02:00:13.908Z,3.94
2018-03-17T02:02:41.758Z,3.92
2018-03-17T02:05:09.435Z,3.99
2018-03-17T02:07:37.128Z,3.63
2018-03-17T02:10:04.801Z,3.90
2018-03-17T02:12:32.505Z,3.84
2018-03-17T02:15:00.167Z,3.87
2018-03-17T02:17:27.895Z,3.90
2018-03-17T02:19:55.565Z,4.11
2018-03-17T02:22:23.240Z,3.97
2018-03-17T02:24:50.936Z,3.81
2018-03-17T02:27:18.608Z,3.79
2018-03-17T02:29:46.295Z,3.87
2018-03-17T02:32:13.969Z,3.91
2018-03-17T02:34:41.851Z,4.13
2018-03-17T02:37:09.532Z,4.17
2018-03-17T02:39:37.196Z,3.88
2018-03-17T02:42:04.888Z,3.96
2018-03-17T02:44:32.556Z,4.06
2018-03-17T02:47:00.246Z,3.91
2018-03-17T02:49:27.916Z,3.60
2018-03-17T02:51:55.744Z,3.83
2018-03-17T02:54:23.428Z,3.79
2018-03-17T02:56:51.106Z,3.57
2018-03-17T02:59:18.809Z,3.41
2018-03-17T03:01:46.488Z,3.58
2018-03-17T03:04:14.418Z,3.49
2018-03-17T03:06:42.110Z,3.49
2018-03-17T03:09:09.779Z,3.66
2018-03-17T03:11:37.472Z,3.68
2018-03-17T03:14:05.150Z,3.54
2018-03-17T03:16:32.846Z,3.60
2018-03-17T03:19:00.526Z,3.60
2018-03-17T03:21:28.237Z,3.52
2018-03-17T03:23:55.905Z,3.39
2018-03-17T03:26:23.576Z,3.33
2018-03-17T03:28:51.276Z,3.54
2018-03-17T03:31:18.969Z,3.36
2018-03-17T03:33:46.654Z,3.29
2018-03-17T03:36:14.333Z,3.53
2018-03-17T03:38:42.054Z,3.80
2018-03-17T03:41:09.732Z,3.82
2018-03-17T03:43:37.409Z,3.49
2018-03-17T03:46:05.104Z,3.53
2018-03-17T03:48:32.802Z,3.55
2018-03-17T03:51:02.139Z,3.45
2018-03-17T03:53:29.824Z,3.44
2018-03-17T03:55:57.633Z,3.46
2018-03-17T03:58:25.385Z,3.46
2018-03-17T04:00:53.056Z,3.56
2018-03-17T04:03:20.771Z,3.52
2018-03-17T04:05:48.445Z,3.28
2018-03-17T04:08:16.146Z,3.58
2018-03-17T04:10:43.812Z,3.54
2018-03-17T04:13:11.763Z,3.65
2018-03-17T04:15:39.435Z,3.62
2018-03-17T04:18:07.107Z,3.63
2018-03-17T04:20:34.798Z,3.76
2018-03-17T04:23:02.483Z,3.72
2018-03-17T04:25:30.200Z,3.77
2018-03-17T04:27:58.064Z,3.66
2018-03-17T04:30:26.054Z,3.57
2018-03-17T04:32:53.728Z,3.72
2018-03-17T04:35:21.476Z,3.57
2018-03-17T04:37:49.167Z,3.92
2018-03-17T04:40:16.853Z,3.70
2018-03-17T04:42:44.566Z,3.93
2018-03-17T04:45:12.240Z,3.94
2018-03-17T04:47:40.004Z,3.97
2018-03-17T04:50:07.704Z,3.73
2018-03-17T04:52:35.403Z,3.62
2018-03-17T04:55:03.100Z,3.73
2018-03-17T04:57:30.780Z,3.94
2018-03-17T04:59:58.473Z,4.13
2018-03-17T05:02:26.262Z,3.90
2018-03-17T05:04:54.215Z,4.10
2018-03-17T05:07:21.915Z,3.65
2018-03-17T05:09:49.664Z,3.95
2018-03-17T05:12:17.365Z,3.63
2018-03-17T05:14:45.035Z,3.39
2018-03-17T05:17:12.732Z,3.51
2018-03-17T05:19:40.405Z,3.67
2018-03-17T05:22:08.132Z,3.86
2018-03-17T05:24:35.814Z,3.76
2018-03-17T05:27:03.493Z,3.51
2018-03-17T05:29:31.202Z,3.63
2018-03-17T05:31:58.876Z,3.55
2018-03-17T05:34:27.227Z,3.69
2018-03-17T05:36:54.930Z,3.33
2018-03-17T05:39:22.742Z,3.28
2018-03-17T05:41:50.423Z,3.29
2018-03-17T05:44:18.092Z,3.48
2018-03-17T05:46:45.789Z,3.17
2018-03-17T05:49:13.492Z,3.42
2018-03-17T05:51:41.197Z,3.56
2018-03-17T05:54:08.871Z,3.65
2018-03-17T05:56:36.604Z,3.58
2018-03-17T05:59:04.274Z,3.33
2018-03-17T06:01:31.958Z,3.54
2018-03-17T06:03:59.665Z,3.57
2018-03-17T06:06:27.336Z,3.64
2018-03-17T06:08:55.025Z,3.69
2018-03-17T06:11:22.705Z,3.55
2018-03-17T06:13:50.728Z,3.67
2018-03-17T06:16:18.400Z,3.59
2018-03-17T06:18:46.086Z,3.50
2018-03-17T06:21:13.778Z,3.66
2018-03-17T06:23:41.457Z,3.45
2018-03-17T06:26:09.161Z,3.32
2018-03-17T06:28:36.840Z,3.37
2018-03-17T06:31:04.660Z,3.39
2018-03-17T06:33:32.340Z,3.51
2018-03-17T06:36:00.012Z,3.43
2018-03-17T06:38:27.721Z,3.65
2018-03-17T06:40:55.408Z,3.44
2018-03-17T06:43:23.114Z,3.23
2018-03-17T06:45:50.783Z,3.39
2018-03-17T06:48:18.504Z,3.50
2018-03-17T06:50:46.181Z,3.53
2018-03-17T06:53:13.866Z,3.54
2018-03-17T06:55:41.589Z,3.30
2018-03-17T06:58:09.266Z,3.31
2018-03-17T07:00:37.039Z,3.11
2018-03-17T07:03:04.665Z,3.01
2018-03-17T07:05:32.731Z,3.31
2018-03-17T07:08:00.434Z,3.31
2018-03-17T07:10:28.108Z,3.22
2018-03-17T07:12:55.799Z,3.32
2018-03-17T07:15:23.512Z,3.28
2018-03-17T07:17:51.210Z,3.38
2018-03-17T07:20:18.888Z,3.43
2018-03-17T07:22:46.800Z,3.25
2018-03-17T07:25:14.492Z,3.26
2018-03-17T07:27:42.160Z,3.24
2018-03-17T07:30:09.854Z,3.29
2018-03-17T07:32:37.550Z,3.25
2018-03-17T07:35:05.252Z,3.36
2018-03-17T07:37:32.940Z,3.28
2018-03-17T07:40:00.838Z,3.31
2018-03-17T07:42:28.597Z,3.49
2018-03-17T07:44:56.259Z,3.40
2018-03-17T07:47:23.955Z,3.56
2018-03-17T07:49:51.628Z,3.47
2018-03-17T07:52:19.343Z,3.55
2018-03-17T07:54:47.021Z,3.61
2018-03-17T07:57:15.099Z,3.67
2018-03-17T07:59:42.775Z,3.52
2018-03-17T08:02:10.453Z,3.52
2018-03-17T08:04:38.147Z,3.53
2018-03-17T08:07:05.828Z,3.66
2018-03-17T08:09:33.547Z,3.67
2018-03-17T08:12:01.243Z,3.54
2018-03-17T08:14:29.357Z,3.53
2018-03-17T08:16:57.035Z,3.41
2018-03-17T08:19:24.718Z,3.57
2018-03-17T08:21:52.415Z,3.59
2018-03-17T08:24:20.080Z,3.38
2018-03-17T08:26:47.776Z,3.59
2018-03-17T08:29:15.462Z,3.62
2018-03-17T08:31:43.401Z,3.72
2018-03-17T08:34:11.083Z,3.64
2018-03-17T08:36:38.772Z,3.39
2018-03-17T08:39:06.493Z,2.93
2018-03-17T08:41:34.169Z,3.38
2018-03-17T08:44:02.000Z,3.40
2018-03-17T08:46:29.684Z,3.54
2018-03-17T08:48:57.355Z,3.58
2018-03-17T08:51:25.058Z,3.62
2018-03-17T08:53:52.743Z,3.35
2018-03-17T08:56:20.471Z,3.31
2018-03-17T08:58:48.169Z,3.24
2018-03-17T09:01:15.839Z,3.38
2018-03-17T09:03:43.556Z,3.65
2018-03-17T09:06:11.252Z,3.79
2018-03-17T09:08:38.949Z,3.36
2018-03-17T09:11:06.623Z,3.34
2018-03-17T09:13:34.644Z,3.60
2018-03-17T09:16:02.310Z,3.43
2018-03-17T09:18:29.992Z,3.23
2018-03-17T09:20:57.704Z,3.16
2018-03-17T09:23:25.407Z,3.23
2018-03-17T09:25:53.192Z,3.35
2018-03-17T09:28:20.865Z,3.49
2018-03-17T09:30:48.603Z,3.44
2018-03-17T09:33:16.276Z,3.44
2018-03-17T09:35:43.949Z,3.89
2018-03-17T09:38:11.666Z,3.83
2018-03-17T09:40:39.356Z,4.20
2018-03-17T09:43:07.063Z,3.91
2018-03-17T09:45:34.743Z,3.75
2018-03-17T09:48:02.658Z,4.01
2018-03-17T09:50:30.323Z,4.00
2018-03-17T09:52:58.006Z,3.77
2018-03-17T09:55:25.701Z,4.19
2018-03-17T09:57:53.381Z,4.01
2018-03-17T10:00:21.084Z,4.26
2018-03-17T10:02:48.771Z,4.17
2018-03-17T10:05:16.491Z,4.29
2018-03-17T10:07:44.156Z,4.51
2018-03-17T10:10:11.843Z,4.47
2018-03-17T10:12:39.553Z,4.48
2018-03-17T10:15:07.224Z,4.55
2018-03-17T10:17:34.922Z,4.46
2018-03-17T10:20:02.599Z,4.39
2018-03-17T10:22:30.354Z,4.60
2018-03-17T10:24:58.031Z,4.54
2018-03-17T10:27:25.704Z,4.47
2018-03-17T10:29:53.410Z,4.48
2018-03-17T10:32:21.080Z,4.47
2018-03-17T10:34:48.784Z,4.28
2018-03-17T10:37:16.463Z,4.31
2018-03-17T10:39:44.435Z,3.93
2018-03-17T10:42:12.086Z,3.82
2018-03-17T10:44:39.784Z,3.68
2018-03-17T10:47:07.485Z,3.64
2018-03-17T10:49:35.168Z,3.64
2018-03-17T10:52:02.871Z,3.69
2018-03-17T10:54:30.573Z,4.07
2018-03-17T10:56:58.311Z,3.77
2018-03-17T10:59:26.032Z,3.81
2018-03-17T11:01:53.730Z,3.67
2018-03-17T11:04:21.532Z,3.85
2018-03-17T11:06:49.215Z,4.03
2018-03-17T11:09:16.914Z,4.13
2018-03-17T11:11:44.600Z,4.03
2018-03-17T11:14:12.407Z,4.12
2018-03-17T11:16:40.104Z,4.34
2018-03-17T11:19:07.788Z,4.28
2018-03-17T11:21:35.501Z,4.39
2018-03-17T11:24:03.201Z,4.09
2018-03-17T11:26:30.901Z,3.96
2018-03-17T11:28:58.605Z,3.65
2018-03-17T11:31:26.528Z,3.54
2018-03-17T11:33:54.231Z,3.60
2018-03-17T11:36:21.908Z,3.53
2018-03-17T11:38:49.620Z,3.57
2018-03-17T11:41:17.318Z,3.82
2018-03-17T11:43:45.054Z,3.88
2018-03-17T11:46:12.733Z,3.75
2018-03-17T11:48:40.424Z,3.64
2018-03-17T11:51:08.198Z,3.82
2018-03-17T11:53:35.866Z,3.85
2018-03-17T11:56:03.857Z,3.93
2018-03-17T11:58:31.532Z,3.95
2018-03-17T12:00:59.208Z,3.92
2018-03-17T12:03:26.909Z,3.92
2018-03-17T12:05:54.587Z,4.08
2018-03-17T12:08:22.274Z,4.16
2018-03-17T12:10:49.948Z,4.07
2018-03-17T12:13:17.709Z,3.82
2018-03-17T12:15:45.377Z,3.75
2018-03-17T12:18:13.044Z,3.77
2018-03-17T12:20:40.759Z,3.90
2018-03-17T12:23:08.437Z,3.99
2018-03-17T12:25:36.141Z,4.28
2018-03-17T12:28:03.818Z,4.10
2018-03-17T12:30:31.537Z,3.56
2018-03-17T12:32:59.247Z,3.88
2018-03-17T12:35:26.952Z,3.92
2018-03-17T12:37:54.782Z,3.95
2018-03-17T12:40:22.452Z,3.64
2018-03-17T12:42:50.152Z,3.53
2018-03-17T12:45:17.848Z,3.63
2018-03-17T12:47:45.880Z,3.62
2018-03-17T12:50:13.590Z,3.79
2018-03-17T12:52:41.257Z,3.80
2018-03-17T12:55:08.948Z,3.97
2018-03-17T12:57:36.620Z,4.30
2018-03-17T13:00:04.317Z,4.31
2018-03-17T13:02:31.988Z,4.33
2018-03-17T13:04:59.955Z,4.29
2018-03-17T13:07:27.636Z,4.17
2018-03-17T13:09:55.324Z,4.01
2018-03-17T13:12:23.028Z,3.72
2018-03-17T13:14:50.705Z,4.10
2018-03-17T13:17:18.419Z,4.09
2018-03-17T13:19:46.089Z,4.04
2018-03-17T13:22:13.812Z,4.07
2018-03-17T13:24:41.488Z,4.06
2018-03-17T13:27:21.202Z,3.74
2018-03-17T13:29:48.896Z,3.70
2018-03-17T13:32:28.716Z,3.85
2018-03-17T13:34:56.382Z,3.79
2018-03-17T13:37:40.367Z,3.51
2018-03-17T13:40:19.905Z,3.60
2018-03-17T13:42:48.039Z,3.67
2018-03-17T13:45:15.713Z,3.47
2018-03-17T13:47:43.393Z,3.50
2018-03-17T13:50:11.121Z,3.36
2018-03-17T13:52:38.791Z,3.36
2018-03-17T13:55:06.486Z,3.51
2018-03-17T13:57:34.154Z,3.42
2018-03-17T14:00:02.268Z,3.41
2018-03-17T14:02:29.931Z,3.38
2018-03-17T14:04:57.913Z,3.16
2018-03-17T14:07:25.619Z,3.10
2018-03-17T14:09:53.293Z,3.20
2018-03-17T14:12:20.984Z,3.08
2018-03-17T14:14:48.651Z,3.04
2018-03-17T14:17:16.645Z,3.00
2018-03-17T14:19:44.313Z,3.04
2018-03-17T14:22:12.001Z,3.17
2018-03-17T14:24:39.695Z,3.10
2018-03-17T14:27:07.373Z,3.28
2018-03-17T14:29:35.060Z,3.45
2018-03-17T14:32:02.730Z,3.50
2018-03-17T14:34:30.679Z,3.57
2018-03-17T14:36:58.345Z,3.60
2018-03-17T14:39:26.016Z,3.49
2018-03-17T14:41:53.711Z,3.11
2018-03-17T14:44:21.389Z,3.04
2018-03-17T14:46:49.116Z,3.11
2018-03-17T14:49:16.780Z,3.07
2018-03-17T14:51:44.500Z,3.06
2018-03-17T14:54:12.167Z,2.81
2018-03-17T14:56:39.842Z,3.01
2018-03-17T14:59:07.545Z,2.91
2018-03-17T15:01:35.229Z,2.70
2018-03-17T15:04:02.941Z,2.93
2018-03-17T15:06:30.615Z,3.01
2018-03-17T15:08:58.464Z,2.43
2018-03-17T15:11:26.140Z,2.51
2018-03-17T15:13:53.812Z,2.71
2018-03-17T15:16:21.502Z,2.67
2018-03-17T15:18:49.199Z,2.61
2018-03-17T15:21:16.899Z,2.65
2018-03-17T15:23:44.564Z,2.77
2018-03-17T15:26:12.254Z,2.60
2018-03-17T15:28:39.932Z,2.57
2018-03-17T15:31:07.776Z,2.23
2018-03-17T15:33:35.440Z,2.41
2018-03-17T15:36:03.115Z,2.38
2018-03-17T15:38:30.807Z,2.46
2018-03-17T15:40:58.472Z,2.18
2018-03-17T15:43:26.155Z,2.08
2018-03-17T15:45:53.862Z,2.29
2018-03-17T15:48:21.776Z,2.26
2018-03-17T15:50:49.485Z,2.20
2018-03-17T15:53:17.155Z,2.18
2018-03-17T15:55:44.836Z,1.91
2018-03-17T15:58:12.503Z,1.98
2018-03-17T16:00:40.201Z,1.65
2018-03-17T16:03:07.860Z,1.70
2018-03-17T16:05:35.541Z,1.86
2018-03-17T16:08:03.227Z,1.68
2018-03-17T16:10:30.894Z,1.79
2018-03-17T16:12:59.015Z,1.76
2018-03-17T16:15:26.681Z,1.91
2018-03-17T16:17:54.380Z,1.76
2018-03-17T16:20:22.076Z,1.77
2018-03-17T16:22:49.748Z,1.62
2018-03-17T16:25:17.440Z,1.72
2018-03-17T16:27:45.197Z,1.59
2018-03-17T16:30:13.363Z,1.64
2018-03-17T16:32:41.037Z,1.43
2018-03-17T16:35:08.709Z,1.52
2018-03-17T16:37:36.407Z,1.48
2018-03-17T16:40:04.081Z,1.23
2018-03-17T16:42:31.779Z,1.23
2018-03-17T16:44:59.444Z,1.20
2018-03-17T16:47:27.310Z,1.39
2018-03-17T16:49:54.980Z,1.15
2018-03-17T16:52:22.666Z,1.30
2018-03-17T16:54:50.360Z,1.18
2018-03-17T16:57:18.024Z,1.17
2018-03-17T16:59:45.723Z,1.14
2018-03-17T17:02:13.393Z,1.25
2018-03-17T17:04:41.121Z,1.27
2018-03-17T17:07:08.789Z,0.99
2018-03-17T17:09:36.465Z,0.87
2018-03-17T17:12:04.149Z,1.09
2018-03-17T17:14:31.826Z,0.92
2018-03-17T17:16:59.516Z,0.97
2018-03-17T17:19:27.176Z,0.95
2018-03-17T17:21:55.131Z,0.74
2018-03-17T17:24:22.797Z,0.82
2018-03-17T17:26:50.473Z,0.59
2018-03-17T17:29:18.163Z,0.73
2018-03-17T17:31:45.830Z,0.50
2018-03-17T17:34:13.537Z,0.55
2018-03-17T17:36:41.224Z,0.51
2018-03-17T17:39:09.035Z,0.81
2018-03-17T17:41:36.708Z,0.56
2018-03-17T17:44:04.372Z,0.52
2018-03-17T17:46:32.052Z,0.60
2018-03-17T17:48:59.713Z,0.64
2018-03-17T17:51:27.416Z,0.77
2018-03-17T17:53:55.317Z,0.87
2018-03-17T17:56:24.410Z,0.80
2018-03-17T17:58:52.086Z,0.62
2018-03-17T18:01:19.756Z,0.73
2018-03-17T18:03:47.483Z,0.36
2018-03-17T18:06:15.170Z,0.33
2018-03-17T18:08:42.855Z,0.55
2018-03-17T18:11:10.516Z,0.46
2018-03-17T18:13:38.228Z,0.71
2018-03-17T18:16:05.906Z,0.63
2018-03-17T18:18:33.608Z,0.73
2018-03-17T18:21:01.306Z,0.52
2018-03-17T18:23:28.971Z,0.52
2018-03-17T18:25:57.064Z,0.89
2018-03-17T18:28:24.724Z,0.76
2018-03-17T18:30:52.389Z,0.50
2018-03-17T18:33:20.080Z,0.53
2018-03-17T18:35:47.746Z,0.52
2018-03-17T18:38:15.696Z,0.72
2018-03-17T18:40:43.361Z,0.61
2018-03-17T18:43:11.163Z,0.44
2018-03-17T18:45:38.856Z,0.48
2018-03-17T18:48:06.612Z,0.57
2018-03-17T18:50:34.297Z,0.63
2018-03-17T18:53:02.139Z,0.86
2018-03-17T18:55:29.855Z,0.69
2018-03-17T18:57:57.520Z,0.58
2018-03-17T19:00:25.184Z,0.92
2018-03-17T19:02:52.864Z,0.79
2018-03-17T19:05:20.540Z,0.77
2018-03-17T19:07:48.230Z,0.77
2018-03-17T19:10:15.893Z,0.90
2018-03-17T19:12:43.884Z,0.87
2018-03-17T19:15:11.576Z,0.86
2018-03-17T19:17:39.373Z,0.87
2018-03-17T19:20:07.061Z,0.93
2018-03-17T19:22:34.755Z,1.24
2018-03-17T19:25:02.442Z,1.34
2018-03-17T19:27:30.114Z,1.36
2018-03-17T19:29:58.154Z,1.12
2018-03-17T19:32:25.816Z,0.98
2018-03-17T19:34:53.484Z,0.81
2018-03-17T19:37:21.176Z,1.01
2018-03-17T19:39:48.844Z,0.97
2018-03-17T19:42:16.532Z,1.20
2018-03-17T19:44:44.196Z,1.23
2018-03-17T19:47:11.908Z,0.94
2018-03-17T19:49:39.661Z,0.49
2018-03-17T19:52:07.316Z,0.52
2018-03-17T19:54:35.016Z,0.58
2018-03-17T19:57:02.692Z,0.79
2018-03-17T19:59:30.373Z,0.54
2018-03-17T20:01:58.036Z,0.70
2018-03-17T20:04:25.731Z,0.68
2018-03-17T20:06:53.404Z,0.59
2018-03-17T20:09:21.108Z,0.53
2018-03-17T20:11:48.778Z,0.39
2018-03-17T20:14:16.487Z,0.43
2018-03-17T20:16:44.151Z,0.70
2018-03-17T20:19:11.873Z,0.69
2018-03-17T20:21:39.555Z,0.60
2018-03-17T20:24:07.241Z,0.52
2018-03-17T20:26:34.927Z,0.64
2018-03-17T20:29:02.602Z,0.61
2018-03-17T20:31:30.975Z,0.62
2018-03-17T20:33:58.644Z,0.63
2018-03-17T20:36:26.336Z,0.65
2018-03-17T20:38:54.279Z,0.65
2018-03-17T20:41:21.994Z,0.74
2018-03-17T20:43:49.660Z,0.51
2018-03-17T20:46:17.347Z,0.61
2018-03-17T20:48:45.016Z,0.49
2018-03-17T20:51:12.711Z,0.62
2018-03-17T20:53:40.372Z,0.67
2018-03-17T20:56:08.274Z,0.77
2018-03-17T20:58:35.943Z,0.68
2018-03-17T21:01:03.620Z,0.91
2018-03-17T21:03:31.306Z,0.90
2018-03-17T21:05:58.973Z,0.78
2018-03-17T21:08:26.668Z,0.73
2018-03-17T21:10:54.339Z,0.66
2018-03-17T21:13:22.375Z,0.66
2018-03-17T21:15:50.041Z,0.47
2018-03-17T21:18:17.764Z,0.72
2018-03-17T21:20:45.431Z,0.61
2018-03-17T21:23:13.105Z,0.49
2018-03-17T21:25:40.796Z,0.15
2018-03-17T21:28:08.473Z,0.40
2018-03-17T21:30:36.157Z,0.25
2018-03-17T21:33:03.827Z,0.42
2018-03-17T21:35:31.539Z,0.74
2018-03-17T21:37:59.260Z,0.37
2018-03-17T21:40:26.935Z,0.42
2018-03-17T21:42:54.623Z,0.22
2018-03-17T21:45:22.297Z,0.15
2018-03-17T21:47:49.985Z,0.02
2018-03-17T21:50:17.664Z,-0.46
2018-03-17T21:52:45.733Z,-0.18
2018-03-17T21:55:13.425Z,-0.40
2018-03-17T21:57:41.116Z,-0.09
2018-03-17T22:00:08.814Z,-0.40
2018-03-17T22:02:36.488Z,-0.35
2018-03-17T22:05:04.190Z,-0.16
2018-03-17T22:07:31.860Z,-0.15
2018-03-17T22:09:59.564Z,-0.45
2018-03-17T22:12:27.236Z,-0.41
2018-03-17T22:14:54.965Z,-0.47
2018-03-17T22:17:22.764Z,-0.58
2018-03-17T22:19:50.435Z,-0.56
2018-03-17T22:22:18.155Z,-0.43
2018-03-17T22:24:45.827Z,-0.59
2018-03-17T22:27:13.524Z,-0.68
2018-03-17T22:29:41.203Z,-0.80
2018-03-17T22:32:09.148Z,-0.60
2018-03-17T22:34:36.828Z,-0.42
2018-03-17T22:37:04.488Z,-0.41
2018-03-17T22:39:32.194Z,-0.95
2018-03-17T22:41:59.879Z,-0.71
2018-03-17T22:44:27.576Z,-0.66
2018-03-17T22:46:55.255Z,-0.59
2018-03-17T22:49:23.423Z,-0.38
2018-03-17T22:51:51.090Z,-0.15
2018-03-17T22:54:18.770Z,-0.12
2018-03-17T22:56:46.470Z,-0.41
2018-03-17T22:59:14.149Z,-0.51
2018-03-17T23:01:41.839Z,-0.91
2018-03-17T23:04:09.522Z,-0.71
2018-03-17T23:06:37.329Z,-0.44
2018-03-17T23:09:05.341Z,-0.70
2018-03-17T23:11:33.052Z,-0.70
2018-03-17T23:14:00.757Z,-0.74
2018-03-17T23:16:28.429Z,-0.82
2018-03-17T23:18:56.170Z,-0.79
2018-03-17T23:21:23.842Z,-0.59
2018-03-17T23:23:51.566Z,-0.66
2018-03-17T23:26:19.261Z,-0.58
2018-03-17T23:28:46.953Z,-0.70
2018-03-17T23:31:14.650Z,-0.51
2018-03-17T23:33:42.341Z,-0.81
2018-03-17T23:36:10.052Z,-0.67
2018-03-17T23:38:37.728Z,-0.84
2018-03-17T23:41:05.745Z,-1.11
2018-03-17T23:43:33.450Z,-0.83
2018-03-17T23:46:01.128Z,-0.75
2018-03-17T23:48:28.844Z,-1.06
2018-03-17T23:50:56.528Z,-1.07
2018-03-17T23:53:24.235Z,-0.96
2018-03-17T23:55:52.027Z,-0.92
2018-03-17T23:58:19.999Z,-0.86
